sensor_id;sensor_type;location;lat;lon;timestamp;temperature;humidity
2723;DHT22;1369;53.216;10.396;2022-08-01T00:00:24;19.60;99.90
2723;DHT22;1369;53.216;10.396;2022-08-01T00:02:49;19.60;99.90
2723;DHT22;1369;53.216;10.396;2022-08-01T00:05:15;19.60;99.90
2723;DHT22;1369;53.216;10.396;2022-08-01T00:07:41;19.70;99.90
2723;DHT22;1369;53.216;10.396;2022-08-01T00:10:12;19.70;99.90
2723;DHT22;1369;53.216;10.396;2022-08-01T00:12:38;19.70;99.90
2723;DHT22;1369;53.216;10.396;2022-08-01T00:15:05;19.70;99.90
2723;DHT22;1369;53.216;10.396;2022-08-01T00:17:31;19.70;99.90
2723;DHT22;1369;53.216;10.396;2022-08-01T00:19:57;19.80;99.90
2723;DHT22;1369;53.216;10.396;2022-08-01T00:22:22;19.70;99.90
2723;DHT22;1369;53.216;10.396;2022-08-01T00:24:48;19.70;99.90
2723;DHT22;1369;53.216;10.396;2022-08-01T00:27:13;19.70;99.90
2723;DHT22;1369;53.216;10.396;2022-08-01T00:29:39;19.70;99.90
2723;DHT22;1369;53.216;10.396;2022-08-01T00:32:05;19.70;99.90
2723;DHT22;1369;53.216;10.396;2022-08-01T00:34:30;19.60;99.90
2723;DHT22;1369;53.216;10.396;2022-08-01T00:36:56;19.60;99.90
2723;DHT22;1369;53.216;10.396;2022-08-01T00:39:21;19.60;99.90
2723;DHT22;1369;53.216;10.396;2022-08-01T00:41:47;19.60;99.90
2723;DHT22;1369;53.216;10.396;2022-08-01T00:44:12;19.60;99.90
2723;DHT22;1369;53.216;10.396;2022-08-01T00:46:38;19.50;99.90
2723;DHT22;1369;53.216;10.396;2022-08-01T00:49:03;19.50;99.90
2723;DHT22;1369;53.216;10.396;2022-08-01T00:51:29;19.50;99.90
2723;DHT22;1369;53.216;10.396;2022-08-01T00:53:54;19.50;99.90
2723;DHT22;1369;53.216;10.396;2022-08-01T00:56:21;19.50;99.90
2723;DHT22;1369;53.216;10.396;2022-08-01T00:58:49;19.50;99.90
2723;DHT22;1369;53.216;10.396;2022-08-01T01:01:14;19.60;99.90
2723;DHT22;1369;53.216;10.396;2022-08-01T01:03:40;19.60;99.90
2723;DHT22;1369;53.216;10.396;2022-08-01T01:06:25;19.70;99.90
2723;DHT22;1369;53.216;10.396;2022-08-01T01:11:34;19.70;99.90
2723;DHT22;1369;53.216;10.396;2022-08-01T01:14:04;19.70;99.90
2723;DHT22;1369;53.216;10.396;2022-08-01T01:16:36;19.70;99.90
2723;DHT22;1369;53.216;10.396;2022-08-01T01:19:05;19.70;99.90
2723;DHT22;1369;53.216;10.396;2022-08-01T01:24:52;19.70;99.90
2723;DHT22;1369;53.216;10.396;2022-08-01T01:27:18;19.70;99.90
2723;DHT22;1369;53.216;10.396;2022-08-01T01:29:51;19.70;99.90
2723;DHT22;1369;53.216;10.396;2022-08-01T01:32:22;19.70;99.90
2723;DHT22;1369;53.216;10.396;2022-08-01T01:34:50;19.70;99.90
2723;DHT22;1369;53.216;10.396;2022-08-01T01:37:21;19.80;99.90
2723;DHT22;1369;53.216;10.396;2022-08-01T01:39:49;19.80;99.90
2723;DHT22;1369;53.216;10.396;2022-08-01T01:42:16;19.70;99.90
2723;DHT22;1369;53.216;10.396;2022-08-01T01:44:44;19.80;99.90
2723;DHT22;1369;53.216;10.396;2022-08-01T01:47:13;19.80;99.90
2723;DHT22;1369;53.216;10.396;2022-08-01T01:49:41;19.70;99.90
2723;DHT22;1369;53.216;10.396;2022-08-01T01:52:09;19.70;99.90
2723;DHT22;1369;53.216;10.396;2022-08-01T01:54:40;19.70;99.90
2723;DHT22;1369;53.216;10.396;2022-08-01T01:57:08;19.70;99.90
2723;DHT22;1369;53.216;10.396;2022-08-01T01:59:38;19.70;99.90
2723;DHT22;1369;53.216;10.396;2022-08-01T02:02:06;19.70;99.90
2723;DHT22;1369;53.216;10.396;2022-08-01T02:04:36;19.70;99.90
2723;DHT22;1369;53.216;10.396;2022-08-01T02:07:04;19.70;99.90
2723;DHT22;1369;53.216;10.396;2022-08-01T02:09:30;19.70;99.90
2723;DHT22;1369;53.216;10.396;2022-08-01T02:11:57;19.60;99.90
2723;DHT22;1369;53.216;10.396;2022-08-01T02:14:24;19.70;99.90
2723;DHT22;1369;53.216;10.396;2022-08-01T02:16:52;19.70;99.90
2723;DHT22;1369;53.216;10.396;2022-08-01T02:19:19;19.70;99.90
2723;DHT22;1369;53.216;10.396;2022-08-01T02:22:04;19.70;99.90
2723;DHT22;1369;53.216;10.396;2022-08-01T02:27:30;19.70;99.90
2723;DHT22;1369;53.216;10.396;2022-08-01T02:30:00;19.70;99.90
2723;DHT22;1369;53.216;10.396;2022-08-01T02:32:34;19.70;99.90
2723;DHT22;1369;53.216;10.396;2022-08-01T02:35:01;19.70;99.90
2723;DHT22;1369;53.216;10.396;2022-08-01T02:37:31;19.70;99.90
2723;DHT22;1369;53.216;10.396;2022-08-01T02:39:59;19.70;99.90
2723;DHT22;1369;53.216;10.396;2022-08-01T02:42:26;19.60;99.90
2723;DHT22;1369;53.216;10.396;2022-08-01T02:44:53;19.60;99.90
2723;DHT22;1369;53.216;10.396;2022-08-01T02:47:20;19.60;99.90
2723;DHT22;1369;53.216;10.396;2022-08-01T02:49:48;19.60;99.90
2723;DHT22;1369;53.216;10.396;2022-08-01T02:52:16;19.60;99.90
2723;DHT22;1369;53.216;10.396;2022-08-01T02:54:45;19.60;99.90
2723;DHT22;1369;53.216;10.396;2022-08-01T02:57:13;19.60;99.90
2723;DHT22;1369;53.216;10.396;2022-08-01T02:59:40;19.50;99.90
2723;DHT22;1369;53.216;10.396;2022-08-01T03:02:07;19.50;99.90
2723;DHT22;1369;53.216;10.396;2022-08-01T03:04:34;19.50;99.90
2723;DHT22;1369;53.216;10.396;2022-08-01T03:07:02;19.50;99.90
2723;DHT22;1369;53.216;10.396;2022-08-01T03:09:33;19.40;99.90
2723;DHT22;1369;53.216;10.396;2022-08-01T03:12:00;19.40;99.90
2723;DHT22;1369;53.216;10.396;2022-08-01T03:14:27;19.40;99.90
2723;DHT22;1369;53.216;10.396;2022-08-01T03:16:56;19.40;99.90
2723;DHT22;1369;53.216;10.396;2022-08-01T03:19:24;19.40;99.90
2723;DHT22;1369;53.216;10.396;2022-08-01T03:21:51;19.50;99.90
2723;DHT22;1369;53.216;10.396;2022-08-01T03:24:18;19.40;99.90
2723;DHT22;1369;53.216;10.396;2022-08-01T03:26:45;19.40;99.90
2723;DHT22;1369;53.216;10.396;2022-08-01T03:29:17;19.40;99.90
2723;DHT22;1369;53.216;10.396;2022-08-01T03:31:46;19.40;99.90
2723;DHT22;1369;53.216;10.396;2022-08-01T03:34:12;19.40;99.90
2723;DHT22;1369;53.216;10.396;2022-08-01T03:36:45;19.40;99.90
2723;DHT22;1369;53.216;10.396;2022-08-01T03:39:12;19.30;99.90
2723;DHT22;1369;53.216;10.396;2022-08-01T03:41:42;19.30;99.90
2723;DHT22;1369;53.216;10.396;2022-08-01T03:44:15;19.30;99.90
2723;DHT22;1369;53.216;10.396;2022-08-01T03:46:48;19.30;99.90
2723;DHT22;1369;53.216;10.396;2022-08-01T03:49:18;19.30;99.90
2723;DHT22;1369;53.216;10.396;2022-08-01T03:51:47;19.20;99.90
2723;DHT22;1369;53.216;10.396;2022-08-01T03:54:16;19.30;99.90
2723;DHT22;1369;53.216;10.396;2022-08-01T03:56:43;19.30;99.90
2723;DHT22;1369;53.216;10.396;2022-08-01T03:59:11;19.30;99.90
2723;DHT22;1369;53.216;10.396;2022-08-01T04:01:37;19.30;99.90
2723;DHT22;1369;53.216;10.396;2022-08-01T04:04:03;19.30;99.90
2723;DHT22;1369;53.216;10.396;2022-08-01T04:06:31;19.30;99.90
2723;DHT22;1369;53.216;10.396;2022-08-01T04:08:56;19.30;99.90
2723;DHT22;1369;53.216;10.396;2022-08-01T04:11:24;19.40;99.90
2723;DHT22;1369;53.216;10.396;2022-08-01T04:13:51;19.30;99.90
2723;DHT22;1369;53.216;10.396;2022-08-01T04:16:18;19.40;99.90
2723;DHT22;1369;53.216;10.396;2022-08-01T04:18:44;19.30;99.90
2723;DHT22;1369;53.216;10.396;2022-08-01T04:21:10;19.30;99.90
2723;DHT22;1369;53.216;10.396;2022-08-01T04:23:35;19.40;99.90
2723;DHT22;1369;53.216;10.396;2022-08-01T04:26:04;19.40;99.90
2723;DHT22;1369;53.216;10.396;2022-08-01T04:28:34;19.50;99.90
2723;DHT22;1369;53.216;10.396;2022-08-01T04:31:01;19.50;99.90
2723;DHT22;1369;53.216;10.396;2022-08-01T04:33:28;19.50;99.90
2723;DHT22;1369;53.216;10.396;2022-08-01T04:35:58;19.50;99.90
2723;DHT22;1369;53.216;10.396;2022-08-01T04:38:26;19.50;99.90
2723;DHT22;1369;53.216;10.396;2022-08-01T04:40:54;19.50;99.90
2723;DHT22;1369;53.216;10.396;2022-08-01T04:43:20;19.50;99.90
2723;DHT22;1369;53.216;10.396;2022-08-01T04:45:47;19.50;99.90
2723;DHT22;1369;53.216;10.396;2022-08-01T04:48:15;19.50;99.90
2723;DHT22;1369;53.216;10.396;2022-08-01T04:50:42;19.50;99.90
2723;DHT22;1369;53.216;10.396;2022-08-01T04:53:15;19.60;99.90
2723;DHT22;1369;53.216;10.396;2022-08-01T04:55:42;19.60;99.90
2723;DHT22;1369;53.216;10.396;2022-08-01T04:58:10;19.60;99.90
2723;DHT22;1369;53.216;10.396;2022-08-01T05:00:36;19.60;99.90
2723;DHT22;1369;53.216;10.396;2022-08-01T05:03:01;19.60;99.90
2723;DHT22;1369;53.216;10.396;2022-08-01T05:05:27;19.60;99.90
2723;DHT22;1369;53.216;10.396;2022-08-01T05:07:52;19.70;99.90
2723;DHT22;1369;53.216;10.396;2022-08-01T05:10:18;19.70;99.90
2723;DHT22;1369;53.216;10.396;2022-08-01T05:12:43;19.80;99.90
2723;DHT22;1369;53.216;10.396;2022-08-01T05:15:09;19.80;99.90
2723;DHT22;1369;53.216;10.396;2022-08-01T05:17:34;19.90;99.90
2723;DHT22;1369;53.216;10.396;2022-08-01T05:20:00;19.90;99.90
2723;DHT22;1369;53.216;10.396;2022-08-01T05:22:25;20.00;99.90
2723;DHT22;1369;53.216;10.396;2022-08-01T05:24:52;20.10;99.90
2723;DHT22;1369;53.216;10.396;2022-08-01T05:27:18;20.20;99.90
2723;DHT22;1369;53.216;10.396;2022-08-01T05:29:43;20.30;99.90
2723;DHT22;1369;53.216;10.396;2022-08-01T05:32:09;20.30;99.90
2723;DHT22;1369;53.216;10.396;2022-08-01T05:34:35;20.30;99.90
2723;DHT22;1369;53.216;10.396;2022-08-01T05:37:01;20.30;99.90
2723;DHT22;1369;53.216;10.396;2022-08-01T05:39:26;20.30;99.90
2723;DHT22;1369;53.216;10.396;2022-08-01T05:41:52;20.30;99.90
2723;DHT22;1369;53.216;10.396;2022-08-01T05:44:17;20.30;99.90
2723;DHT22;1369;53.216;10.396;2022-08-01T05:46:43;20.40;99.90
2723;DHT22;1369;53.216;10.396;2022-08-01T05:49:08;20.40;99.90
2723;DHT22;1369;53.216;10.396;2022-08-01T05:51:34;20.40;99.90
2723;DHT22;1369;53.216;10.396;2022-08-01T05:54:00;20.50;99.90
2723;DHT22;1369;53.216;10.396;2022-08-01T05:56:25;20.50;99.90
2723;DHT22;1369;53.216;10.396;2022-08-01T05:58:52;20.60;99.90
2723;DHT22;1369;53.216;10.396;2022-08-01T06:01:18;20.70;99.90
2723;DHT22;1369;53.216;10.396;2022-08-01T06:03:44;20.80;99.90
2723;DHT22;1369;53.216;10.396;2022-08-01T06:06:10;20.80;99.90
2723;DHT22;1369;53.216;10.396;2022-08-01T06:08:35;20.70;99.90
2723;DHT22;1369;53.216;10.396;2022-08-01T06:11:01;20.60;99.90
2723;DHT22;1369;53.216;10.396;2022-08-01T06:13:27;20.60;99.90
2723;DHT22;1369;53.216;10.396;2022-08-01T06:15:52;20.60;99.90
2723;DHT22;1369;53.216;10.396;2022-08-01T06:18:19;20.50;99.90
2723;DHT22;1369;53.216;10.396;2022-08-01T06:20:45;20.60;99.90
2723;DHT22;1369;53.216;10.396;2022-08-01T06:23:10;20.60;99.90
2723;DHT22;1369;53.216;10.396;2022-08-01T06:25:36;20.60;99.90
2723;DHT22;1369;53.216;10.396;2022-08-01T06:28:02;20.60;99.90
2723;DHT22;1369;53.216;10.396;2022-08-01T06:30:28;20.60;99.90
2723;DHT22;1369;53.216;10.396;2022-08-01T06:32:53;20.60;99.90
2723;DHT22;1369;53.216;10.396;2022-08-01T06:35:21;20.60;99.90
2723;DHT22;1369;53.216;10.396;2022-08-01T06:37:46;20.50;99.90
2723;DHT22;1369;53.216;10.396;2022-08-01T06:40:12;20.50;99.90
2723;DHT22;1369;53.216;10.396;2022-08-01T06:42:38;20.50;99.90
2723;DHT22;1369;53.216;10.396;2022-08-01T06:45:11;20.50;99.90
2723;DHT22;1369;53.216;10.396;2022-08-01T06:47:38;20.50;99.90
2723;DHT22;1369;53.216;10.396;2022-08-01T06:50:04;20.40;99.90
2723;DHT22;1369;53.216;10.396;2022-08-01T06:52:30;20.40;99.90
2723;DHT22;1369;53.216;10.396;2022-08-01T06:54:56;20.40;99.90
2723;DHT22;1369;53.216;10.396;2022-08-01T06:57:21;20.60;99.90
2723;DHT22;1369;53.216;10.396;2022-08-01T06:59:47;20.70;99.90
2723;DHT22;1369;53.216;10.396;2022-08-01T07:02:13;20.70;99.90
2723;DHT22;1369;53.216;10.396;2022-08-01T07:04:38;20.80;99.90
2723;DHT22;1369;53.216;10.396;2022-08-01T07:07:04;20.80;99.90
2723;DHT22;1369;53.216;10.396;2022-08-01T07:09:29;20.80;99.90
2723;DHT22;1369;53.216;10.396;2022-08-01T07:11:55;20.90;99.90
2723;DHT22;1369;53.216;10.396;2022-08-01T07:14:22;21.00;99.90
2723;DHT22;1369;53.216;10.396;2022-08-01T07:16:48;21.10;99.90
2723;DHT22;1369;53.216;10.396;2022-08-01T07:19:15;21.10;99.90
2723;DHT22;1369;53.216;10.396;2022-08-01T07:21:41;21.10;99.90
2723;DHT22;1369;53.216;10.396;2022-08-01T07:24:08;21.20;99.90
2723;DHT22;1369;53.216;10.396;2022-08-01T07:26:34;21.20;99.90
2723;DHT22;1369;53.216;10.396;2022-08-01T07:29:00;21.10;99.90
2723;DHT22;1369;53.216;10.396;2022-08-01T07:31:25;21.10;99.90
2723;DHT22;1369;53.216;10.396;2022-08-01T07:33:51;21.00;99.90
2723;DHT22;1369;53.216;10.396;2022-08-01T07:36:17;21.10;99.90
2723;DHT22;1369;53.216;10.396;2022-08-01T07:38:44;21.10;99.90
2723;DHT22;1369;53.216;10.396;2022-08-01T07:41:09;21.30;99.90
2723;DHT22;1369;53.216;10.396;2022-08-01T07:43:35;21.50;99.90
2723;DHT22;1369;53.216;10.396;2022-08-01T07:46:04;21.80;99.90
2723;DHT22;1369;53.216;10.396;2022-08-01T07:48:30;21.90;99.90
2723;DHT22;1369;53.216;10.396;2022-08-01T07:50:55;21.90;99.90
2723;DHT22;1369;53.216;10.396;2022-08-01T07:53:21;21.90;99.90
2723;DHT22;1369;53.216;10.396;2022-08-01T07:55:47;21.80;99.90
2723;DHT22;1369;53.216;10.396;2022-08-01T07:58:13;21.70;99.90
2723;DHT22;1369;53.216;10.396;2022-08-01T08:00:39;21.60;99.90
2723;DHT22;1369;53.216;10.396;2022-08-01T08:03:05;21.60;99.90
2723;DHT22;1369;53.216;10.396;2022-08-01T08:05:31;21.60;99.90
2723;DHT22;1369;53.216;10.396;2022-08-01T08:08:01;21.60;99.90
2723;DHT22;1369;53.216;10.396;2022-08-01T08:10:26;21.70;99.90
2723;DHT22;1369;53.216;10.396;2022-08-01T08:12:52;21.80;99.90
2723;DHT22;1369;53.216;10.396;2022-08-01T08:15:17;21.80;99.90
2723;DHT22;1369;53.216;10.396;2022-08-01T08:17:43;21.70;99.90
2723;DHT22;1369;53.216;10.396;2022-08-01T08:20:09;21.60;99.90
2723;DHT22;1369;53.216;10.396;2022-08-01T08:22:34;21.50;99.90
2723;DHT22;1369;53.216;10.396;2022-08-01T08:25:00;21.40;99.90
2723;DHT22;1369;53.216;10.396;2022-08-01T08:27:26;21.40;99.90
2723;DHT22;1369;53.216;10.396;2022-08-01T08:29:51;21.50;99.90
2723;DHT22;1369;53.216;10.396;2022-08-01T08:32:17;21.50;99.90
2723;DHT22;1369;53.216;10.396;2022-08-01T08:34:42;21.50;99.90
2723;DHT22;1369;53.216;10.396;2022-08-01T08:37:08;21.40;99.90
2723;DHT22;1369;53.216;10.396;2022-08-01T08:39:34;21.40;99.90
2723;DHT22;1369;53.216;10.396;2022-08-01T08:42:00;21.50;99.90
2723;DHT22;1369;53.216;10.396;2022-08-01T08:44:27;21.70;99.90
2723;DHT22;1369;53.216;10.396;2022-08-01T08:46:52;21.80;99.90
2723;DHT22;1369;53.216;10.396;2022-08-01T08:49:24;21.90;99.90
2723;DHT22;1369;53.216;10.396;2022-08-01T08:51:51;22.10;99.90
2723;DHT22;1369;53.216;10.396;2022-08-01T08:54:20;22.10;99.90
2723;DHT22;1369;53.216;10.396;2022-08-01T08:56:47;22.10;99.90
2723;DHT22;1369;53.216;10.396;2022-08-01T08:59:13;22.00;99.90
2723;DHT22;1369;53.216;10.396;2022-08-01T09:01:39;22.00;99.90
2723;DHT22;1369;53.216;10.396;2022-08-01T09:04:05;22.00;99.90
2723;DHT22;1369;53.216;10.396;2022-08-01T09:06:32;22.10;99.90
2723;DHT22;1369;53.216;10.396;2022-08-01T09:08:58;22.10;99.90
2723;DHT22;1369;53.216;10.396;2022-08-01T09:11:23;22.10;99.90
2723;DHT22;1369;53.216;10.396;2022-08-01T09:14:14;22.30;99.90
2723;DHT22;1369;53.216;10.396;2022-08-01T09:16:44;22.30;99.90
2723;DHT22;1369;53.216;10.396;2022-08-01T09:19:13;22.20;99.90
2723;DHT22;1369;53.216;10.396;2022-08-01T09:21:39;22.20;99.90
2723;DHT22;1369;53.216;10.396;2022-08-01T09:24:14;22.30;99.90
2723;DHT22;1369;53.216;10.396;2022-08-01T09:26:40;22.40;99.90
2723;DHT22;1369;53.216;10.396;2022-08-01T09:29:07;22.40;99.90
2723;DHT22;1369;53.216;10.396;2022-08-01T09:31:41;22.40;99.90
2723;DHT22;1369;53.216;10.396;2022-08-01T09:34:07;22.40;99.90
2723;DHT22;1369;53.216;10.396;2022-08-01T09:36:44;22.60;99.90
2723;DHT22;1369;53.216;10.396;2022-08-01T09:39:14;22.90;99.90
2723;DHT22;1369;53.216;10.396;2022-08-01T09:41:40;23.10;99.90
2723;DHT22;1369;53.216;10.396;2022-08-01T09:44:06;23.10;99.90
2723;DHT22;1369;53.216;10.396;2022-08-01T09:46:32;23.00;99.90
2723;DHT22;1369;53.216;10.396;2022-08-01T09:51:32;22.70;99.90
2723;DHT22;1369;53.216;10.396;2022-08-01T09:53:58;22.70;99.90
2723;DHT22;1369;53.216;10.396;2022-08-01T09:56:25;22.70;99.90
2723;DHT22;1369;53.216;10.396;2022-08-01T09:58:58;22.80;99.90
2723;DHT22;1369;53.216;10.396;2022-08-01T10:01:25;23.10;99.90
2723;DHT22;1369;53.216;10.396;2022-08-01T10:06:37;23.50;99.90
2723;DHT22;1369;53.216;10.396;2022-08-01T10:09:03;23.50;99.90
2723;DHT22;1369;53.216;10.396;2022-08-01T10:11:29;23.50;99.90
2723;DHT22;1369;53.216;10.396;2022-08-01T10:13:57;23.50;99.90
2723;DHT22;1369;53.216;10.396;2022-08-01T10:16:25;23.60;99.90
2723;DHT22;1369;53.216;10.396;2022-08-01T10:18:53;23.80;99.90
2723;DHT22;1369;53.216;10.396;2022-08-01T10:21:19;24.10;99.90
2723;DHT22;1369;53.216;10.396;2022-08-01T10:23:46;24.10;99.90
2723;DHT22;1369;53.216;10.396;2022-08-01T10:26:12;24.60;99.90
2723;DHT22;1369;53.216;10.396;2022-08-01T10:28:40;24.90;99.90
2723;DHT22;1369;53.216;10.396;2022-08-01T10:31:10;24.40;99.90
2723;DHT22;1369;53.216;10.396;2022-08-01T10:33:36;24.10;99.90
2723;DHT22;1369;53.216;10.396;2022-08-01T10:36:05;24.20;99.90
2723;DHT22;1369;53.216;10.396;2022-08-01T10:38:31;24.40;99.90
2723;DHT22;1369;53.216;10.396;2022-08-01T10:40:57;24.70;99.90
2723;DHT22;1369;53.216;10.396;2022-08-01T10:43:24;24.80;99.90
2723;DHT22;1369;53.216;10.396;2022-08-01T10:45:50;24.70;99.90
2723;DHT22;1369;53.216;10.396;2022-08-01T10:50:59;24.50;99.90
2723;DHT22;1369;53.216;10.396;2022-08-01T10:53:27;24.60;99.90
2723;DHT22;1369;53.216;10.396;2022-08-01T10:56:02;24.90;99.90
2723;DHT22;1369;53.216;10.396;2022-08-01T10:58:33;25.20;99.90
2723;DHT22;1369;53.216;10.396;2022-08-01T11:04:26;25.40;99.90
2723;DHT22;1369;53.216;10.396;2022-08-01T11:14:24;24.90;99.90
2723;DHT22;1369;53.216;10.396;2022-08-01T11:16:50;25.10;99.90
2723;DHT22;1369;53.216;10.396;2022-08-01T11:19:15;25.30;99.90
2723;DHT22;1369;53.216;10.396;2022-08-01T11:21:58;25.20;99.90
2723;DHT22;1369;53.216;10.396;2022-08-01T11:27:21;25.20;99.90
2723;DHT22;1369;53.216;10.396;2022-08-01T11:32:46;25.50;99.90
2723;DHT22;1369;53.216;10.396;2022-08-01T11:35:12;25.60;99.90
2723;DHT22;1369;53.216;10.396;2022-08-01T11:37:38;25.60;99.90
2723;DHT22;1369;53.216;10.396;2022-08-01T11:40:26;25.60;99.90
2723;DHT22;1369;53.216;10.396;2022-08-01T11:45:53;25.20;99.90
2723;DHT22;1369;53.216;10.396;2022-08-01T11:48:25;25.00;99.90
2723;DHT22;1369;53.216;10.396;2022-08-01T11:50:53;25.00;99.90
2723;DHT22;1369;53.216;10.396;2022-08-01T11:53:19;25.10;99.90
2723;DHT22;1369;53.216;10.396;2022-08-01T11:55:50;25.10;99.90
2723;DHT22;1369;53.216;10.396;2022-08-01T11:58:24;25.30;99.90
2723;DHT22;1369;53.216;10.396;2022-08-01T12:00:50;25.30;99.90
2723;DHT22;1369;53.216;10.396;2022-08-01T12:03:16;25.50;99.90
2723;DHT22;1369;53.216;10.396;2022-08-01T12:05:43;25.40;99.90
2723;DHT22;1369;53.216;10.396;2022-08-01T12:08:09;25.40;99.90
2723;DHT22;1369;53.216;10.396;2022-08-01T12:10:35;25.50;99.90
2723;DHT22;1369;53.216;10.396;2022-08-01T12:13:03;25.50;99.90
2723;DHT22;1369;53.216;10.396;2022-08-01T12:15:34;25.50;99.90
2723;DHT22;1369;53.216;10.396;2022-08-01T12:18:05;25.40;99.90
2723;DHT22;1369;53.216;10.396;2022-08-01T12:20:33;25.50;99.90
2723;DHT22;1369;53.216;10.396;2022-08-01T12:23:02;25.50;99.90
2723;DHT22;1369;53.216;10.396;2022-08-01T12:25:28;25.50;99.90
2723;DHT22;1369;53.216;10.396;2022-08-01T12:27:53;25.30;99.90
2723;DHT22;1369;53.216;10.396;2022-08-01T12:30:21;25.50;99.90
2723;DHT22;1369;53.216;10.396;2022-08-01T12:32:51;25.50;99.90
2723;DHT22;1369;53.216;10.396;2022-08-01T12:35:22;25.60;99.90
2723;DHT22;1369;53.216;10.396;2022-08-01T12:37:56;25.50;99.90
2723;DHT22;1369;53.216;10.396;2022-08-01T12:40:30;25.60;99.90
2723;DHT22;1369;53.216;10.396;2022-08-01T12:42:58;25.60;99.90
2723;DHT22;1369;53.216;10.396;2022-08-01T12:45:27;25.30;99.90
2723;DHT22;1369;53.216;10.396;2022-08-01T12:47:54;25.30;99.90
2723;DHT22;1369;53.216;10.396;2022-08-01T12:50:23;25.30;99.90
2723;DHT22;1369;53.216;10.396;2022-08-01T12:52:51;25.30;99.90
2723;DHT22;1369;53.216;10.396;2022-08-01T12:55:19;25.10;99.90
2723;DHT22;1369;53.216;10.396;2022-08-01T12:57:49;25.10;99.90
2723;DHT22;1369;53.216;10.396;2022-08-01T13:00:23;25.40;99.90
2723;DHT22;1369;53.216;10.396;2022-08-01T13:02:59;25.70;99.90
2723;DHT22;1369;53.216;10.396;2022-08-01T13:05:25;25.90;99.90
2723;DHT22;1369;53.216;10.396;2022-08-01T13:07:50;25.90;99.90
2723;DHT22;1369;53.216;10.396;2022-08-01T13:10:28;26.00;99.90
2723;DHT22;1369;53.216;10.396;2022-08-01T13:12:56;26.10;99.90
2723;DHT22;1369;53.216;10.396;2022-08-01T13:15:25;26.30;99.90
2723;DHT22;1369;53.216;10.396;2022-08-01T13:17:53;26.40;99.90
2723;DHT22;1369;53.216;10.396;2022-08-01T13:20:23;26.50;99.90
2723;DHT22;1369;53.216;10.396;2022-08-01T13:22:49;26.50;99.90
2723;DHT22;1369;53.216;10.396;2022-08-01T13:25:16;26.40;99.90
2723;DHT22;1369;53.216;10.396;2022-08-01T13:27:42;26.30;99.90
2723;DHT22;1369;53.216;10.396;2022-08-01T13:30:18;26.40;99.90
2723;DHT22;1369;53.216;10.396;2022-08-01T13:32:57;26.20;99.90
2723;DHT22;1369;53.216;10.396;2022-08-01T13:35:23;26.10;99.90
2723;DHT22;1369;53.216;10.396;2022-08-01T13:37:49;25.90;99.90
2723;DHT22;1369;53.216;10.396;2022-08-01T13:40:24;25.90;99.90
2723;DHT22;1369;53.216;10.396;2022-08-01T13:42:50;26.00;99.90
2723;DHT22;1369;53.216;10.396;2022-08-01T13:45:16;26.20;99.90
2723;DHT22;1369;53.216;10.396;2022-08-01T13:47:42;26.30;99.90
2723;DHT22;1369;53.216;10.396;2022-08-01T13:50:08;26.40;99.90
2723;DHT22;1369;53.216;10.396;2022-08-01T13:52:34;26.30;99.90
2723;DHT22;1369;53.216;10.396;2022-08-01T13:55:00;26.40;99.90
2723;DHT22;1369;53.216;10.396;2022-08-01T13:57:27;26.50;99.90
2723;DHT22;1369;53.216;10.396;2022-08-01T13:59:52;26.40;99.90
2723;DHT22;1369;53.216;10.396;2022-08-01T14:02:18;26.30;99.90
2723;DHT22;1369;53.216;10.396;2022-08-01T14:04:43;26.30;99.90
2723;DHT22;1369;53.216;10.396;2022-08-01T14:07:09;26.10;99.90
2723;DHT22;1369;53.216;10.396;2022-08-01T14:09:34;26.10;99.90
2723;DHT22;1369;53.216;10.396;2022-08-01T14:12:00;25.90;99.90
2723;DHT22;1369;53.216;10.396;2022-08-01T14:14:25;25.90;99.90
2723;DHT22;1369;53.216;10.396;2022-08-01T14:16:51;25.90;99.90
2723;DHT22;1369;53.216;10.396;2022-08-01T14:19:16;25.90;99.90
2723;DHT22;1369;53.216;10.396;2022-08-01T14:21:43;25.80;99.90
2723;DHT22;1369;53.216;10.396;2022-08-01T14:24:08;25.80;99.90
2723;DHT22;1369;53.216;10.396;2022-08-01T14:26:35;25.70;99.90
2723;DHT22;1369;53.216;10.396;2022-08-01T14:29:00;25.60;99.90
2723;DHT22;1369;53.216;10.396;2022-08-01T14:31:26;25.60;99.90
2723;DHT22;1369;53.216;10.396;2022-08-01T14:33:52;25.60;99.90
2723;DHT22;1369;53.216;10.396;2022-08-01T14:36:17;25.60;99.90
2723;DHT22;1369;53.216;10.396;2022-08-01T14:38:43;25.60;99.90
2723;DHT22;1369;53.216;10.396;2022-08-01T14:41:08;25.60;99.90
2723;DHT22;1369;53.216;10.396;2022-08-01T14:43:34;24.90;99.90
2723;DHT22;1369;53.216;10.396;2022-08-01T14:46:00;24.70;99.90
2723;DHT22;1369;53.216;10.396;2022-08-01T14:48:26;24.70;99.90
2723;DHT22;1369;53.216;10.396;2022-08-01T14:50:51;24.80;99.90
2723;DHT22;1369;53.216;10.396;2022-08-01T14:53:17;24.70;99.90
2723;DHT22;1369;53.216;10.396;2022-08-01T14:55:43;24.80;99.90
2723;DHT22;1369;53.216;10.396;2022-08-01T14:58:09;24.80;99.90
2723;DHT22;1369;53.216;10.396;2022-08-01T15:00:34;24.80;99.90
2723;DHT22;1369;53.216;10.396;2022-08-01T15:03:00;24.90;99.90
2723;DHT22;1369;53.216;10.396;2022-08-01T15:05:25;24.80;99.90
2723;DHT22;1369;53.216;10.396;2022-08-01T15:07:51;24.50;99.90
2723;DHT22;1369;53.216;10.396;2022-08-01T15:10:16;24.50;99.90
2723;DHT22;1369;53.216;10.396;2022-08-01T15:12:42;24.40;99.90
2723;DHT22;1369;53.216;10.396;2022-08-01T15:15:09;24.40;99.90
2723;DHT22;1369;53.216;10.396;2022-08-01T15:17:34;24.20;99.90
2723;DHT22;1369;53.216;10.396;2022-08-01T15:20:03;24.20;99.90
2723;DHT22;1369;53.216;10.396;2022-08-01T15:22:30;24.20;99.90
2723;DHT22;1369;53.216;10.396;2022-08-01T15:24:57;24.10;99.90
2723;DHT22;1369;53.216;10.396;2022-08-01T15:27:23;24.10;99.90
2723;DHT22;1369;53.216;10.396;2022-08-01T15:29:49;24.00;99.90
2723;DHT22;1369;53.216;10.396;2022-08-01T15:32:16;24.00;99.90
2723;DHT22;1369;53.216;10.396;2022-08-01T15:34:42;24.10;99.90
2723;DHT22;1369;53.216;10.396;2022-08-01T15:37:08;24.10;99.90
2723;DHT22;1369;53.216;10.396;2022-08-01T15:39:34;24.00;99.90
2723;DHT22;1369;53.216;10.396;2022-08-01T15:42:04;24.10;99.90
2723;DHT22;1369;53.216;10.396;2022-08-01T15:44:30;24.00;99.90
2723;DHT22;1369;53.216;10.396;2022-08-01T15:46:55;24.00;99.90
2723;DHT22;1369;53.216;10.396;2022-08-01T15:49:21;23.90;99.90
2723;DHT22;1369;53.216;10.396;2022-08-01T15:51:48;23.90;99.90
2723;DHT22;1369;53.216;10.396;2022-08-01T15:54:15;23.90;99.90
2723;DHT22;1369;53.216;10.396;2022-08-01T15:56:41;23.90;99.90
2723;DHT22;1369;53.216;10.396;2022-08-01T15:59:07;23.90;99.90
2723;DHT22;1369;53.216;10.396;2022-08-01T16:01:32;23.80;99.90
2723;DHT22;1369;53.216;10.396;2022-08-01T16:03:58;23.70;99.90
2723;DHT22;1369;53.216;10.396;2022-08-01T16:06:24;23.70;99.90
2723;DHT22;1369;53.216;10.396;2022-08-01T16:08:50;23.70;99.90
2723;DHT22;1369;53.216;10.396;2022-08-01T16:11:17;23.60;99.90
2723;DHT22;1369;53.216;10.396;2022-08-01T16:13:42;23.50;99.90
2723;DHT22;1369;53.216;10.396;2022-08-01T16:16:09;23.50;99.90
2723;DHT22;1369;53.216;10.396;2022-08-01T16:18:35;23.40;99.90
2723;DHT22;1369;53.216;10.396;2022-08-01T16:21:00;23.50;99.90